createdAt,value
2022-10-18T00:02:11.028Z,6.13
2022-10-18T00:04:37.651Z,5.47
2022-10-18T00:07:04.159Z,4.15
2022-10-18T00:09:30.731Z,5.30
2022-10-18T00:11:57.363Z,4.57
2022-10-18T00:14:23.956Z,4.47
2022-10-18T00:16:50.409Z,4.13
2022-10-18T00:19:16.844Z,5.40
2022-10-18T00:24:14.765Z,5.80
2022-10-18T00:26:41.377Z,5.00
2022-10-18T00:29:07.943Z,4.45
2022-10-18T00:31:36.839Z,4.25
2022-10-18T00:34:10.336Z,4.97
2022-10-18T00:36:36.997Z,5.35
2022-10-18T00:39:05.667Z,4.68
2022-10-18T00:41:34.490Z,5.00
2022-10-18T00:44:04.000Z,5.30
2022-10-18T00:46:33.205Z,4.65
2022-10-18T00:49:04.085Z,4.10
2022-10-18T00:51:34.760Z,4.10
2022-10-18T00:54:01.345Z,4.05
2022-10-18T00:56:28.587Z,4.35
2022-10-18T00:58:55.235Z,4.65
2022-10-18T01:01:24.485Z,4.40
2022-10-18T01:03:54.725Z,5.30
2022-10-18T01:06:21.361Z,3.50
2022-10-18T01:08:58.409Z,4.68
2022-10-18T01:11:52.330Z,4.95
2022-10-18T01:14:21.792Z,4.78
2022-10-18T01:16:58.217Z,4.55
2022-10-18T01:19:58.407Z,4.30
2022-10-18T01:22:32.692Z,3.92
2022-10-18T01:25:34.543Z,4.47
2022-10-18T01:28:36.595Z,6.05
2022-10-18T01:31:18.664Z,3.50
2022-10-18T01:34:03.447Z,4.65
2022-10-18T01:36:35.940Z,4.40
2022-10-18T01:39:06.960Z,4.80
2022-10-18T01:41:37.103Z,4.28
2022-10-18T01:44:07.200Z,5.38
2022-10-18T01:46:33.745Z,3.45
2022-10-18T01:49:00.356Z,3.65
2022-10-18T01:51:28.631Z,3.72
2022-10-18T01:53:55.144Z,3.95
2022-10-18T01:56:30.557Z,5.28
2022-10-18T01:59:02.740Z,3.55
2022-10-18T02:01:41.079Z,3.92
2022-10-18T02:04:20.957Z,4.30
2022-10-18T02:06:53.679Z,3.08
2022-10-18T02:09:30.117Z,4.40
2022-10-18T02:11:58.310Z,4.30
2022-10-18T02:14:25.772Z,5.10
2022-10-18T02:16:56.881Z,4.90
2022-10-18T02:19:37.796Z,3.67
2022-10-18T02:22:05.596Z,3.45
2022-10-18T02:24:38.064Z,4.10
2022-10-18T02:27:04.609Z,3.30
2022-10-18T02:29:31.867Z,3.78
2022-10-18T02:32:18.293Z,3.63
2022-10-18T02:34:59.058Z,2.88
2022-10-18T02:37:30.736Z,3.90
2022-10-18T02:39:57.449Z,3.78
2022-10-18T02:42:24.049Z,3.20
2022-10-18T02:44:50.669Z,4.00
2022-10-18T02:47:17.167Z,4.43
2022-10-18T02:49:43.737Z,3.05
2022-10-18T02:52:10.192Z,3.20
2022-10-18T02:54:36.644Z,3.97
2022-10-18T02:57:03.362Z,3.53
2022-10-18T02:59:29.848Z,3.00
2022-10-18T03:01:56.345Z,3.92
2022-10-18T03:04:22.939Z,2.92
2022-10-18T03:06:49.472Z,3.60
2022-10-18T03:09:15.926Z,3.05
2022-10-18T03:11:42.402Z,3.58
2022-10-18T03:14:08.868Z,3.20
2022-10-18T03:16:35.343Z,2.67
2022-10-18T03:19:01.973Z,3.47
2022-10-18T03:21:28.426Z,2.97
2022-10-18T03:23:54.930Z,3.08
2022-10-18T03:26:21.626Z,2.65
2022-10-18T03:28:48.199Z,3.42
2022-10-18T03:31:14.717Z,2.88
2022-10-18T03:33:41.159Z,3.35
2022-10-18T03:36:07.770Z,3.47
2022-10-18T03:38:34.315Z,3.35
2022-10-18T03:41:00.785Z,3.13
2022-10-18T03:43:27.377Z,3.38
2022-10-18T03:45:53.897Z,2.65
2022-10-18T03:48:20.380Z,3.67
2022-10-18T03:50:46.972Z,2.08
2022-10-18T03:53:13.411Z,3.03
2022-10-18T03:55:40.153Z,3.00
2022-10-18T03:58:07.017Z,2.60
2022-10-18T04:00:33.480Z,3.72
2022-10-18T04:03:00.115Z,2.60
2022-10-18T04:05:28.386Z,2.50
2022-10-18T04:07:55.006Z,2.60
2022-10-18T04:10:21.775Z,2.20
2022-10-18T04:12:48.229Z,2.40
2022-10-18T04:15:14.765Z,2.05
2022-10-18T04:17:41.369Z,3.13
2022-10-18T04:20:08.117Z,3.38
2022-10-18T04:22:34.685Z,4.18
2022-10-18T04:25:01.290Z,2.42
2022-10-18T04:27:27.741Z,3.03
2022-10-18T04:29:54.179Z,2.47
2022-10-18T04:32:20.669Z,2.63
2022-10-18T04:34:47.126Z,3.10
2022-10-18T04:37:13.807Z,3.25
2022-10-18T04:39:40.411Z,2.17
2022-10-18T04:42:06.873Z,2.30
2022-10-18T04:44:34.337Z,2.50
2022-10-18T04:47:00.862Z,2.47
2022-10-18T04:49:27.325Z,3.35
2022-10-18T04:51:53.848Z,2.42
2022-10-18T04:54:21.865Z,3.42
2022-10-18T04:56:50.370Z,2.45
2022-10-18T04:59:16.841Z,3.45
2022-10-18T05:01:43.409Z,3.97
2022-10-18T05:04:09.960Z,2.47
2022-10-18T05:06:36.416Z,2.83
2022-10-18T05:09:02.891Z,2.65
2022-10-18T05:11:29.380Z,3.47
2022-10-18T05:13:55.908Z,2.90
2022-10-18T05:16:22.474Z,2.80
2022-10-18T05:18:48.920Z,2.10
2022-10-18T05:21:16.353Z,2.58
2022-10-18T05:23:42.925Z,2.83
2022-10-18T05:26:09.593Z,2.78
2022-10-18T05:28:40.419Z,2.38
2022-10-18T05:31:09.907Z,3.08
2022-10-18T05:33:36.388Z,2.38
2022-10-18T05:36:03.240Z,2.15
2022-10-18T05:38:32.931Z,2.53
2022-10-18T05:40:59.575Z,2.53
2022-10-18T05:43:29.875Z,2.88
2022-10-18T05:45:56.416Z,3.65
2022-10-18T05:48:23.201Z,2.72
2022-10-18T05:50:49.673Z,1.98
2022-10-18T05:53:35.795Z,2.63
2022-10-18T05:56:03.373Z,3.15
2022-10-18T05:58:29.900Z,5.07
2022-10-18T06:00:59.796Z,2.50
2022-10-18T06:03:27.748Z,3.47
2022-10-18T06:06:06.067Z,2.60
2022-10-18T06:08:33.739Z,2.05
2022-10-18T06:11:00.326Z,3.08
2022-10-18T06:13:27.165Z,2.55
2022-10-18T06:15:57.652Z,3.22
2022-10-18T06:18:24.571Z,2.97
2022-10-18T06:20:57.567Z,2.50
2022-10-18T06:23:24.006Z,1.90
2022-10-18T06:25:50.465Z,2.20
2022-10-18T06:28:16.953Z,2.13
2022-10-18T06:30:44.456Z,1.95
2022-10-18T06:33:11.969Z,3.63
2022-10-18T06:35:38.412Z,2.15
2022-10-18T06:38:06.264Z,1.65
2022-10-18T06:40:37.809Z,2.55
2022-10-18T06:43:20.053Z,2.97
2022-10-18T06:45:47.368Z,2.45
2022-10-18T06:48:13.890Z,2.03
2022-10-18T06:50:40.520Z,2.13
2022-10-18T06:53:08.668Z,2.15
2022-10-18T06:55:35.880Z,1.70
2022-10-18T06:58:02.319Z,2.13
2022-10-18T07:00:28.823Z,1.73
2022-10-18T07:02:56.435Z,2.95
2022-10-18T07:05:22.956Z,1.77
2022-10-18T07:07:52.915Z,1.75
2022-10-18T07:10:22.793Z,2.47
2022-10-18T07:12:49.251Z,1.88
2022-10-18T07:15:17.793Z,1.70
2022-10-18T07:17:47.856Z,1.73
2022-10-18T07:20:14.388Z,2.28
2022-10-18T07:22:40.943Z,1.83
2022-10-18T07:25:07.784Z,2.05
2022-10-18T07:27:39.093Z,1.30
2022-10-18T07:30:07.920Z,1.70
2022-10-18T07:32:34.468Z,1.63
2022-10-18T07:35:02.680Z,3.70
2022-10-18T07:37:30.447Z,2.08
2022-10-18T07:39:56.982Z,2.17
2022-10-18T07:42:23.645Z,1.50
2022-10-18T07:44:50.574Z,1.67
2022-10-18T07:47:17.239Z,1.30
2022-10-18T07:49:43.822Z,1.92
2022-10-18T07:52:11.015Z,1.80
2022-10-18T07:54:37.553Z,1.20
2022-10-18T07:57:04.961Z,1.95
2022-10-18T07:59:31.451Z,1.80
2022-10-18T08:01:57.955Z,1.60
2022-10-18T08:04:24.483Z,1.33
2022-10-18T08:06:50.999Z,1.10
2022-10-18T08:09:17.494Z,1.60
2022-10-18T08:11:44.009Z,1.13
2022-10-18T08:14:10.503Z,1.60
2022-10-18T08:16:36.963Z,2.47
2022-10-18T08:19:04.260Z,1.50
2022-10-18T08:21:30.743Z,1.48
2022-10-18T08:23:57.199Z,1.58
2022-10-18T08:26:23.900Z,1.60
2022-10-18T08:28:58.244Z,1.58
2022-10-18T08:31:30.859Z,1.60
2022-10-18T08:33:57.513Z,1.83
2022-10-18T08:36:24.711Z,1.60
2022-10-18T08:38:51.713Z,1.20
2022-10-18T08:41:39.355Z,1.83
2022-10-18T08:44:21.220Z,0.98
2022-10-18T08:47:04.063Z,1.38
2022-10-18T08:49:57.989Z,1.17
2022-10-18T08:52:47.759Z,1.40
2022-10-18T08:55:19.967Z,1.52
2022-10-18T08:57:48.291Z,1.80
2022-10-18T09:00:20.513Z,1.20
2022-10-18T09:03:17.414Z,1.92
2022-10-18T09:05:52.491Z,2.53
2022-10-18T09:08:44.785Z,1.33
2022-10-18T09:11:32.993Z,1.77
2022-10-18T09:14:15.104Z,2.03
2022-10-18T09:16:56.908Z,1.58
2022-10-18T09:19:48.090Z,1.98
2022-10-18T09:22:18.087Z,1.08
2022-10-18T09:24:53.706Z,1.20
2022-10-18T09:27:22.520Z,1.55
2022-10-18T09:29:51.905Z,1.73
2022-10-18T09:32:48.284Z,3.33
2022-10-18T09:35:21.162Z,3.80
2022-10-18T09:37:48.457Z,3.22
2022-10-18T09:40:36.473Z,5.78
2022-10-18T09:43:24.825Z,5.20
2022-10-18T09:45:53.421Z,2.90
2022-10-18T09:49:01.304Z,5.47
2022-10-18T09:51:34.804Z,6.43
2022-10-18T09:54:04.903Z,4.95
2022-10-18T09:56:45.640Z,4.07
2022-10-18T09:59:46.924Z,2.53
2022-10-18T10:02:15.878Z,2.13
2022-10-18T10:04:42.856Z,5.32
2022-10-18T10:07:13.752Z,5.93
2022-10-18T10:09:46.309Z,4.85
2022-10-18T10:12:37.625Z,6.57
2022-10-18T10:15:31.210Z,5.85
2022-10-18T10:18:17.324Z,5.90
2022-10-18T10:20:45.524Z,6.35
2022-10-18T10:23:38.930Z,4.32
2022-10-18T10:26:20.812Z,3.93
2022-10-18T10:28:48.854Z,3.45
2022-10-18T10:31:22.396Z,10.10
2022-10-18T10:34:00.195Z,8.50
2022-10-18T10:36:26.814Z,4.03
2022-10-18T10:39:13.015Z,6.03
2022-10-18T10:41:41.316Z,8.15
2022-10-18T10:44:23.372Z,4.45
2022-10-18T10:46:51.469Z,4.65
2022-10-18T10:49:40.119Z,3.72
2022-10-18T10:52:26.990Z,4.97
2022-10-18T10:55:05.749Z,3.60
2022-10-18T10:57:38.582Z,4.57
2022-10-18T11:00:05.452Z,8.40
2022-10-18T11:02:34.624Z,5.28
2022-10-18T11:05:23.507Z,4.47
2022-10-18T11:07:52.232Z,5.18
2022-10-18T11:10:22.811Z,4.47
2022-10-18T11:13:03.753Z,4.07
2022-10-18T11:15:36.480Z,9.38
2022-10-18T11:18:21.325Z,3.40
2022-10-18T11:20:55.238Z,5.57
2022-10-18T11:23:30.855Z,6.65
2022-10-18T11:26:12.296Z,5.22
2022-10-18T11:29:01.729Z,5.55
2022-10-18T11:31:40.073Z,6.25
2022-10-18T11:34:34.963Z,5.45
2022-10-18T11:37:33.261Z,4.43
2022-10-18T11:40:29.821Z,5.88
2022-10-18T11:43:30.268Z,5.82
2022-10-18T11:46:15.780Z,4.13
2022-10-18T11:49:00.213Z,3.70
2022-10-18T11:51:34.073Z,6.15
2022-10-18T11:54:30.126Z,3.30
2022-10-18T11:57:28.259Z,4.22
2022-10-18T12:00:03.139Z,3.38
2022-10-18T12:02:29.839Z,4.97
2022-10-18T12:05:22.452Z,3.95
2022-10-18T12:08:25.426Z,3.65
2022-10-18T12:11:05.211Z,2.75
2022-10-18T12:13:41.191Z,4.35
2022-10-18T12:16:10.081Z,4.82
2022-10-18T12:18:50.003Z,3.15
2022-10-18T12:21:23.262Z,2.30
2022-10-18T12:23:59.400Z,4.30
2022-10-18T12:26:28.357Z,3.17
2022-10-18T12:29:13.719Z,5.13
2022-10-18T12:31:46.300Z,2.13
2022-10-18T12:34:22.697Z,4.63
2022-10-18T12:36:58.126Z,4.25
2022-10-18T12:39:43.470Z,4.10
2022-10-18T12:42:29.631Z,2.92
2022-10-18T12:45:21.753Z,3.42
2022-10-18T12:47:48.285Z,3.53
2022-10-18T12:50:28.132Z,2.83
2022-10-18T12:53:15.604Z,4.32
2022-10-18T12:55:48.925Z,2.92
2022-10-18T12:58:15.473Z,3.80
2022-10-18T13:00:53.069Z,3.30
2022-10-18T13:03:25.304Z,2.63
2022-10-18T13:06:02.901Z,3.88
2022-10-18T13:08:38.122Z,4.13
2022-10-18T13:11:10.893Z,2.67
2022-10-18T13:17:01.009Z,3.45
2022-10-18T13:19:33.783Z,1.83
2022-10-18T13:22:47.605Z,3.40
2022-10-18T13:25:20.591Z,3.83
2022-10-18T13:28:02.306Z,2.28
2022-10-18T13:30:53.141Z,1.85
2022-10-18T13:33:33.139Z,2.95
2022-10-18T13:36:05.262Z,2.38
2022-10-18T13:38:41.530Z,1.65
2022-10-18T13:41:15.800Z,1.50
2022-10-18T13:44:23.708Z,2.95
2022-10-18T13:46:50.095Z,3.63
2022-10-18T13:49:31.633Z,2.72
2022-10-18T13:52:26.069Z,2.83
2022-10-18T13:55:17.392Z,2.13
2022-10-18T13:58:18.012Z,2.38
2022-10-18T14:01:23.903Z,1.92
2022-10-18T14:04:14.635Z,2.83
2022-10-18T14:06:43.910Z,1.48
2022-10-18T14:09:32.935Z,2.47
2022-10-18T14:12:28.605Z,1.65
2022-10-18T14:15:07.701Z,1.48
2022-10-18T14:17:42.422Z,3.00
2022-10-18T14:20:27.369Z,4.18
2022-10-18T14:22:55.896Z,2.25
2022-10-18T14:25:26.546Z,1.92
2022-10-18T14:28:16.580Z,3.55
2022-10-18T14:31:09.191Z,2.63
2022-10-18T14:33:48.068Z,4.32
2022-10-18T14:36:22.629Z,10.32
2022-10-18T14:38:58.200Z,7.35
2022-10-18T14:41:27.712Z,8.70
2022-10-18T14:44:15.616Z,5.25
2022-10-18T14:46:44.315Z,6.68
2022-10-18T14:49:12.490Z,9.93
2022-10-18T14:51:41.954Z,9.00
2022-10-18T14:54:16.422Z,8.05
2022-10-18T14:56:44.474Z,10.15
2022-10-18T14:59:21.979Z,5.93
2022-10-18T15:02:05.356Z,10.23
2022-10-18T15:04:34.820Z,13.75
2022-10-18T15:07:07.736Z,11.70
2022-10-18T15:09:36.841Z,10.38
2022-10-18T15:12:06.589Z,12.68
2022-10-18T15:14:34.761Z,12.73
2022-10-18T15:17:12.882Z,11.52
2022-10-18T15:19:39.625Z,11.80
2022-10-18T15:25:15.714Z,8.10
2022-10-18T15:27:51.254Z,9.00
2022-10-18T15:30:36.342Z,10.82
2022-10-18T15:33:05.368Z,14.40
2022-10-18T15:35:34.775Z,7.63
2022-10-18T15:38:23.116Z,9.32
2022-10-18T15:40:49.810Z,7.68
2022-10-18T15:43:25.387Z,7.22
2022-10-18T15:46:03.482Z,7.20
2022-10-18T15:48:37.561Z,6.00
2022-10-18T15:51:06.820Z,8.88
2022-10-18T15:53:44.474Z,8.93
2022-10-18T15:56:38.174Z,8.43
2022-10-18T15:59:20.817Z,8.68
2022-10-18T16:01:47.417Z,6.40
2022-10-18T16:04:20.887Z,7.72
2022-10-18T16:06:47.467Z,4.22
2022-10-18T16:09:17.003Z,6.20
2022-10-18T16:11:43.504Z,6.85
2022-10-18T16:14:10.169Z,6.53
2022-10-18T16:16:37.089Z,5.97
2022-10-18T16:19:03.690Z,8.10
2022-10-18T16:21:36.630Z,4.68
2022-10-18T16:24:04.253Z,5.95
2022-10-18T16:26:31.291Z,7.43
2022-10-18T16:28:58.406Z,5.50
2022-10-18T16:31:28.213Z,6.82
2022-10-18T16:33:55.980Z,5.30
2022-10-18T16:36:25.375Z,7.43
2022-10-18T16:38:52.221Z,4.53
2022-10-18T16:41:19.009Z,5.97
2022-10-18T16:43:47.507Z,4.90
2022-10-18T16:46:21.927Z,5.97
2022-10-18T16:48:50.070Z,5.68
2022-10-18T16:51:17.326Z,4.20
2022-10-18T16:53:44.671Z,3.88
2022-10-18T16:56:15.518Z,4.55
2022-10-18T16:58:42.939Z,5.53
2022-10-18T17:01:13.566Z,4.10
2022-10-18T17:03:40.905Z,6.45
2022-10-18T17:06:18.210Z,5.60
2022-10-18T17:08:45.175Z,6.53
2022-10-18T17:11:13.030Z,6.35
2022-10-18T17:13:39.596Z,5.13
2022-10-18T17:16:06.697Z,6.65
2022-10-18T17:18:33.236Z,6.32
2022-10-18T17:21:03.524Z,6.25
2022-10-18T17:23:30.468Z,7.80
2022-10-18T17:26:06.822Z,7.28
2022-10-18T17:28:36.424Z,7.82
2022-10-18T17:31:06.300Z,8.93
2022-10-18T17:33:32.858Z,5.85
2022-10-18T17:35:59.475Z,7.15
2022-10-18T17:38:25.999Z,7.88
2022-10-18T17:40:53.347Z,7.60
2022-10-18T17:43:20.190Z,9.27
2022-10-18T17:45:54.605Z,11.90
2022-10-18T17:48:21.351Z,8.35
2022-10-18T17:50:48.073Z,7.90
2022-10-18T17:53:14.699Z,8.15
2022-10-18T17:55:41.143Z,11.18
2022-10-18T17:58:07.944Z,7.22
2022-10-18T18:00:34.456Z,8.35
2022-10-18T18:03:01.278Z,8.45
2022-10-18T18:05:32.624Z,7.45
2022-10-18T18:08:02.950Z,8.70
2022-10-18T18:10:33.120Z,8.95
2022-10-18T18:12:59.650Z,8.93
2022-10-18T18:15:26.260Z,8.68
2022-10-18T18:17:57.049Z,8.77
2022-10-18T18:20:24.535Z,7.82
2022-10-18T18:22:51.592Z,8.88
2022-10-18T18:25:18.320Z,9.15
2022-10-18T18:27:44.797Z,6.50
2022-10-18T18:30:11.579Z,6.20
2022-10-18T18:32:38.141Z,6.50
2022-10-18T18:35:04.944Z,8.23
2022-10-18T18:37:31.472Z,7.53
2022-10-18T18:39:58.010Z,7.57
2022-10-18T18:42:24.469Z,7.63
2022-10-18T18:44:51.000Z,8.10
2022-10-18T18:47:21.200Z,6.88
2022-10-18T18:49:47.814Z,7.43
2022-10-18T18:52:14.316Z,6.65
2022-10-18T18:54:40.776Z,8.73
2022-10-18T18:57:07.311Z,6.72
2022-10-18T18:59:34.117Z,6.57
2022-10-18T19:02:00.609Z,6.38
2022-10-18T19:04:28.953Z,8.98
2022-10-18T19:06:55.448Z,7.80
2022-10-18T19:09:22.865Z,6.63
2022-10-18T19:11:52.354Z,9.38
2022-10-18T19:14:19.448Z,6.38
2022-10-18T19:16:50.505Z,7.13
2022-10-18T19:19:19.695Z,7.03
2022-10-18T19:21:49.211Z,6.70
2022-10-18T19:24:15.843Z,7.15
2022-10-18T19:26:45.723Z,5.82
2022-10-18T19:29:18.996Z,5.47
2022-10-18T19:31:45.657Z,6.93
2022-10-18T19:34:14.195Z,6.72
2022-10-18T19:36:42.300Z,5.20
2022-10-18T19:39:15.580Z,5.22
2022-10-18T19:41:42.126Z,7.25
2022-10-18T19:44:08.599Z,4.85
2022-10-18T19:46:35.135Z,5.13
2022-10-18T19:49:01.651Z,6.07
2022-10-18T19:51:28.639Z,7.40
2022-10-18T19:53:56.490Z,8.23
2022-10-18T19:56:25.177Z,6.20
2022-10-18T19:58:52.017Z,6.63
2022-10-18T20:01:19.401Z,8.27
2022-10-18T20:03:47.048Z,6.63
2022-10-18T20:06:13.769Z,7.75
2022-10-18T20:08:40.284Z,6.05
2022-10-18T20:11:09.800Z,8.82
2022-10-18T20:13:37.048Z,6.28
2022-10-18T20:16:05.359Z,5.78
2022-10-18T20:18:31.885Z,6.97
2022-10-18T20:20:58.562Z,6.60
2022-10-18T20:23:25.383Z,4.80
2022-10-18T20:26:03.172Z,8.30
2022-10-18T20:28:30.067Z,6.60
2022-10-18T20:31:08.931Z,6.72
2022-10-18T20:33:36.307Z,5.75
2022-10-18T20:36:08.243Z,6.78
2022-10-18T20:38:36.781Z,7.15
2022-10-18T20:41:07.876Z,5.18
2022-10-18T20:43:34.932Z,6.65
2022-10-18T20:46:02.580Z,8.13
2022-10-18T20:48:30.222Z,7.75
2022-10-18T20:50:56.968Z,6.22
2022-10-18T20:53:23.752Z,6.25
2022-10-18T20:55:50.427Z,5.30
2022-10-18T20:58:17.279Z,5.97
2022-10-18T21:00:43.760Z,6.18
2022-10-18T21:05:36.721Z,5.88
2022-10-18T21:08:03.191Z,5.40
2022-10-18T21:10:29.657Z,5.20
2022-10-18T21:12:56.341Z,6.60
2022-10-18T21:15:22.792Z,8.43
2022-10-18T21:17:51.443Z,4.97
2022-10-18T21:20:18.301Z,6.32
2022-10-18T21:22:44.802Z,5.90
2022-10-18T21:25:11.369Z,6.78
2022-10-18T21:27:37.872Z,6.25
2022-10-18T21:30:04.764Z,4.22
2022-10-18T21:32:31.553Z,4.85
2022-10-18T21:34:58.335Z,5.07
2022-10-18T21:37:24.790Z,6.22
2022-10-18T21:39:51.253Z,5.18
2022-10-18T21:42:17.734Z,5.28
2022-10-18T21:44:44.222Z,4.85
2022-10-18T21:47:10.691Z,5.28
2022-10-18T21:49:37.315Z,5.15
2022-10-18T21:52:05.315Z,5.22
2022-10-18T21:54:32.002Z,3.45
2022-10-18T21:56:58.495Z,5.35
2022-10-18T21:59:25.039Z,4.75
2022-10-18T22:01:51.951Z,6.50
2022-10-18T22:04:27.525Z,5.68
2022-10-18T22:06:54.042Z,4.47
2022-10-18T22:09:21.648Z,4.05
2022-10-18T22:11:51.478Z,4.60
2022-10-18T22:14:18.005Z,5.18
2022-10-18T22:16:44.480Z,6.13
2022-10-18T22:19:11.265Z,4.93
2022-10-18T22:21:37.795Z,4.97
2022-10-18T22:24:06.971Z,4.53
2022-10-18T22:26:37.078Z,4.20
2022-10-18T22:29:10.878Z,5.38
2022-10-18T22:31:40.087Z,3.65
2022-10-18T22:34:10.159Z,3.90
2022-10-18T22:36:36.704Z,2.92
2022-10-18T22:39:05.363Z,5.93
2022-10-18T22:41:32.965Z,5.90
2022-10-18T22:44:02.588Z,4.20
2022-10-18T22:46:30.642Z,3.92
2022-10-18T22:48:57.131Z,3.30
2022-10-18T22:51:23.700Z,4.75
2022-10-18T22:53:50.234Z,4.88
2022-10-18T22:56:18.890Z,3.42
2022-10-18T22:58:45.975Z,3.90
2022-10-18T23:01:15.575Z,3.90
2022-10-18T23:03:42.393Z,3.58
2022-10-18T23:06:23.961Z,3.75
2022-10-18T23:08:52.272Z,5.40
2022-10-18T23:11:19.269Z,3.92
2022-10-18T23:13:46.030Z,4.03
2022-10-18T23:16:13.221Z,4.60
2022-10-18T23:21:13.783Z,3.55
2022-10-18T23:23:42.059Z,4.20
2022-10-18T23:26:14.216Z,3.20
2022-10-18T23:28:43.519Z,4.78
2022-10-18T23:31:12.937Z,3.13
2022-10-18T23:33:40.337Z,3.50
2022-10-18T23:36:08.125Z,4.88
2022-10-18T23:38:37.803Z,4.88
2022-10-18T23:41:08.653Z,2.88
2022-10-18T23:43:35.718Z,3.78
2022-10-18T23:46:02.352Z,3.38
2022-10-18T23:48:28.918Z,4.43
2022-10-18T23:50:55.642Z,5.32
2022-10-18T23:53:22.895Z,2.13
2022-10-18T23:55:55.770Z,4.47
2022-10-18T23:58:22.608Z,3.25
